Virtual United States Air Force

 FLIGHT DETAILS
Pilot: A7425 Adrian Garcia Aircraft: F-35A LIGHTNING II 13-5081 34TH FS USAF Distance: 715NM
Departure KHIF Arrival KHIF Duration 01:25
Validation Validated Type Charter Tail Number 10-5013
ZFW 29199 Block Fuel/Initial FOB 5,726/0 Flight Fuel 13,599
Passengers 0 Cargo 0 Alternate
Departure Time Cruise Speed Flight Level
Flight Type VFR Aircraft Type F35A Weight Unit Lbs
Date April-04-2026 Pilot Comments Network VATSIM
Crashed No Validator Comments Flight Rating 100

 ROUTE
ROUTE
REMARKS
 FLIGHT FAILURES
Crashed OK Beacon off & Engine Running Fail KIAS Above 250 below 10000 FT Fail
Lights OFF below 10000 FT Fail Lights ON above 10000 FT OK Stall Fail
Overspeed OK Flight paused Fail Refueling Fail
Slew detected OK Taxi & Taxi lights off Fail Take off & lights off OK
Landing & lights off Fail Landed in not planned airport OK Taxi Speed OK
Wrong altimeter in Take off OK Wrong altimeter in Landing OK
 LANDING ANALYSIS
Landing wind 101º/0 kt Landing heading 302
Landing VS: -142.26 ft/min Landing IAS: 120.26 kt
Landing Force G 1.1 G Landing Bank 1
Landing Pitch 7.2 Landing Flaps 36
Navigation Lights ON Landing Lights OFF
Beacon Lights OFF Strobe Lights ON
 FLIGHT MAP
 ALTITUDE CHART
 FLIGHT FINANCIAL REPORT
 MAIN EVENTS
DATE EVENTIASALTITUDE
2026-04-04 02:54:12 SIM ACARS version 1.4.134789
2026-04-04 02:54:12 BOARDING34789
2026-04-04 02:56:12 REFUELING 50,00%34789
2026-04-04 03:12:07 STARTING ENGINE 1 34789
2026-04-04 03:12:07 BEACON LIGHT OFF & ENGINE ON34789
2026-04-04 03:17:54 TAXI TO THE RWY 124789
2026-04-04 03:17:54 TAXING WITH TAXI LIGHTS OFF124789
2026-04-04 03:26:50 ROLLING FOR TAKE OFF394788
2026-04-04 03:26:52 REFUELING -0,64%744788
2026-04-04 03:27:02 TAKE OFF2154792
2026-04-04 03:27:03 GEAR UP2184798
2026-04-04 03:27:04 LIGHTS OFF BELOW 10000 ft2264812
2026-04-04 03:27:06 IAS ABOVE 250 KNOTS BELOW 10000 ft2614828
2026-04-04 03:27:12 REFUELING -1,86%3304934
2026-04-04 03:27:32 REFUELING -1,52%4427642
2026-04-04 03:27:52 REFUELING -0,93%42014389
2026-04-04 03:28:12 REFUELING -0,80%48416047
2026-04-04 03:28:32 REFUELING -0,62%49216352
2026-04-04 03:29:32 DESCEND41416339
2026-04-04 03:30:42 CRUISE44816408
2026-04-04 03:32:52 DESCEND42016258
2026-04-04 03:34:32 CLIMBING26613804
2026-04-04 03:35:02 DESCEND28912323
2026-04-04 03:36:32 REFUELING -0,99%4477584
2026-04-04 03:36:42 CLIMBING43312237
2026-04-04 03:36:52 REFUELING -1,65%41816562
2026-04-04 03:37:12 REFUELING -0,64%31618258
2026-04-04 03:37:32 REFUELING -0,75%48715738
2026-04-04 03:37:32 DESCEND48715738
2026-04-04 03:38:24 STALL1535015
2026-04-04 03:38:25 RECOVER FROM STALL1514999
2026-04-04 03:38:32 REFUELING -0,72%2354970
2026-04-04 03:38:52 REFUELING -1,86%4875365
2026-04-04 03:39:02 CLIMBING5075400
2026-04-04 03:39:12 REFUELING -1,86%5605381
2026-04-04 03:39:32 REFUELING -1,86%5845683
2026-04-04 03:39:52 REFUELING -1,86%5966066
2026-04-04 03:40:12 REFUELING -0,95%4017556
2026-04-04 03:40:32 REFUELING -0,93%4356634
2026-04-04 03:40:52 REFUELING -0,86%5147860
2026-04-04 03:41:12 REFUELING -0,88%49913277
2026-04-04 03:42:22 DESCEND26612856
2026-04-04 03:43:02 CLIMBING17511521
2026-04-04 03:43:32 REFUELING -0,51%25612087
2026-04-04 03:43:52 REFUELING -0,56%35411896
2026-04-04 03:44:13 REFUELING -0,57%43811816
2026-04-04 03:44:32 REFUELING -0,54%43011482
2026-04-04 03:44:32 DESCEND43011473
2026-04-04 03:45:12 REFUELING -0,67%47912388
2026-04-04 03:45:32 REFUELING -0,60%51111875
2026-04-04 03:45:32 CLIMBING51111883
2026-04-04 03:45:52 REFUELING -0,65%49613220
2026-04-04 03:46:13 REFUELING -0,54%5708391
2026-04-04 03:46:13 DESCEND5708391
2026-04-04 03:46:32 REFUELING -0,77%5318121
2026-04-04 03:46:42 CLIMBING51610894
2026-04-04 03:46:52 REFUELING -0,83%50812594
2026-04-04 03:47:13 REFUELING -0,55%50712694
2026-04-04 03:47:22 DESCEND52912334
2026-04-04 03:47:32 REFUELING -0,67%53811877
2026-04-04 03:47:52 REFUELING -0,67%53911419
2026-04-04 03:48:13 REFUELING -0,69%51112863
2026-04-04 03:48:13 CLIMBING51112863
2026-04-04 03:48:32 REFUELING -0,64%50114093
2026-04-04 03:48:52 REFUELING -0,58%44816840
2026-04-04 03:49:13 REFUELING -0,60%42718497
2026-04-04 03:49:22 DESCEND42818047
2026-04-04 03:50:32 REFUELING -0,51%38516747
2026-04-04 03:50:52 REFUELING -0,73%48416923
2026-04-04 03:51:02 CLIMBING48716992
2026-04-04 03:51:13 REFUELING -0,55%49016942
2026-04-04 03:51:32 REFUELING -0,56%49316771
2026-04-04 03:51:32 DESCEND49316770
2026-04-04 03:51:52 REFUELING -0,55%48916711
2026-04-04 03:52:13 CRUISE46716589
2026-04-04 03:52:52 REFUELING -0,83%48916560
2026-04-04 03:54:22 CLIMBING43516770
2026-04-04 03:54:32 REFUELING -0,53%46016817
2026-04-04 03:55:32 REFUELING -0,57%49116817
2026-04-04 03:55:32 DESCEND49116817
2026-04-04 03:55:52 REFUELING -0,54%48616940
2026-04-04 03:57:32 REFUELING -0,52%47416323
2026-04-04 03:58:02 CLIMBING34916533
2026-04-04 03:58:32 REFUELING -1,07%48416770
2026-04-04 03:59:02 DESCEND36616660
2026-04-04 04:00:02 CLIMBING35416581
2026-04-04 04:01:32 REFUELING -1,12%47117151
2026-04-04 04:01:52 REFUELING -0,60%33923503
2026-04-04 04:02:13 REFUELING -0,58%28524870
2026-04-04 04:02:32 REFUELING -1,19%42324460
2026-04-04 04:03:22 DESCEND41125595
2026-04-04 04:05:02 CRUISE24724963
2026-04-04 04:06:13 REFUELING -0,93%38024955
2026-04-04 04:07:43 DESCEND30524938
2026-04-04 04:09:13 CRUISE28125120
2026-04-04 04:11:32 REFUELING 6,19%29525115
2026-04-04 04:12:52 REFUELING 11,92%30125091
2026-04-04 04:13:13 REFUELING 12,44%30625053
2026-04-04 04:13:32 REFUELING 11,38%30825087
2026-04-04 04:13:52 REFUELING 7,58%30925083
2026-04-04 04:14:13 REFUELING 5,36%30925108
2026-04-04 04:14:32 REFUELING 1,23%27325094
2026-04-04 04:14:43 DESCEND28325040
2026-04-04 04:17:32 REFUELING -0,61%43321572
2026-04-04 04:18:13 REFUELING -0,64%36321603
2026-04-04 04:19:03 CLIMBING34121834
2026-04-04 04:19:43 CRUISE35421968
2026-04-04 04:20:43 CLIMBING36022025
2026-04-04 04:21:33 CRUISE35622031
2026-04-04 04:26:03 DESCEND28021903
2026-04-04 04:26:32 REFUELING -0,59%41521998
2026-04-04 04:26:52 REFUELING -1,13%47822210
2026-04-04 04:26:53 CLIMBING47922211
2026-04-04 04:27:13 REFUELING -1,36%54422806
2026-04-04 04:27:32 REFUELING -0,58%45217304
2026-04-04 04:27:43 DESCEND50315111
2026-04-04 04:27:52 REFUELING -1,52%51113138
2026-04-04 04:28:32 REFUELING -0,58%5289026
2026-04-04 04:28:43 CLIMBING5769487
2026-04-04 04:28:52 REFUELING -1,80%60310142
2026-04-04 04:29:13 REFUELING -0,69%53911598
2026-04-04 04:29:33 REFUELING -1,79%6417820
2026-04-04 04:29:53 REFUELING -1,86%37619982
2026-04-04 04:30:13 REFUELING -1,72%45719597
2026-04-04 04:30:23 DESCEND53412228
2026-04-04 04:30:33 REFUELING -0,95%53810784
2026-04-04 04:30:53 REFUELING -1,86%47913560
2026-04-04 04:31:03 CLIMBING34019129
2026-04-04 04:31:13 REFUELING -1,84%44415824
2026-04-04 04:31:33 REFUELING -0,53%52010907
2026-04-04 04:31:33 DESCEND52010896
2026-04-04 04:31:53 REFUELING -0,52%51910093
2026-04-04 04:32:13 REFUELING -0,54%51610246
2026-04-04 04:32:23 CLIMBING51610290
2026-04-04 04:32:33 REFUELING -0,54%51510334
2026-04-04 04:32:53 REFUELING -0,55%50810853
2026-04-04 04:33:13 REFUELING -0,56%48112264
2026-04-04 04:33:33 REFUELING -0,53%50012020
2026-04-04 04:33:53 REFUELING -0,52%48612282
2026-04-04 04:34:53 REFUELING -0,61%48417132
2026-04-04 04:35:03 DESCEND48717011
2026-04-04 04:35:53 REFUELING -0,57%49116810
2026-04-04 04:36:13 REFUELING -0,56%49316637
2026-04-04 04:36:33 REFUELING -0,55%48617045
2026-04-04 04:36:43 CLIMBING51817472
2026-04-04 04:36:53 REFUELING -1,49%56218026
2026-04-04 04:37:13 REFUELING -1,69%73113311
2026-04-04 04:37:23 DESCEND61210667
2026-04-04 04:37:53 REFUELING -1,60%44420274
2026-04-04 04:37:53 CLIMBING44420301
2026-04-04 04:38:05 STALL24521061
2026-04-04 04:38:05 RECOVER FROM STALL23920959
2026-04-04 04:38:07 STALL22820533
2026-04-04 04:38:12 RECOVER FROM STALL21519418
2026-04-04 04:38:13 REFUELING -0,57%22619216
2026-04-04 04:38:23 DESCEND37816986
2026-04-04 04:38:33 REFUELING -1,33%49514025
2026-04-04 04:38:53 REFUELING -0,71%5429640
2026-04-04 04:39:13 REFUELING -1,71%38823750
2026-04-04 04:39:13 CLIMBING38823805
2026-04-04 04:39:33 REFUELING -1,20%23336761
2026-04-04 04:39:53 REFUELING -0,93%33435340
2026-04-04 04:40:03 DESCEND41832064
2026-04-04 04:40:13 REFUELING -1,01%54526999
2026-04-04 04:40:33 REFUELING -1,49%73821511
2026-04-04 04:41:43 CLIMBING38011569
2026-04-04 04:41:59 STALL30512674
2026-04-04 04:42:02 RECOVER FROM STALL24912616
2026-04-04 04:42:13 REFUELING -1,38%39911338
2026-04-04 04:42:23 DESCEND48610213
2026-04-04 04:42:33 REFUELING -1,86%48912648
2026-04-04 04:42:53 REFUELING -1,47%60210086
2026-04-04 04:43:03 CLIMBING52412298
2026-04-04 04:43:13 REFUELING -0,71%48115542
2026-04-04 04:43:33 REFUELING -0,66%44320500
2026-04-04 04:43:53 REFUELING -0,54%42423384
2026-04-04 04:45:03 CRUISE36725865
2026-04-04 04:46:03 DESCEND35425747
2026-04-04 04:53:31 STALL2017058
2026-04-04 04:53:33 RECOVER FROM STALL1736999
2026-04-04 04:53:33 STALL1716989
2026-04-04 04:53:33 RECOVER FROM STALL1686977
2026-04-04 04:53:34 STALL1666962
2026-04-04 04:53:39 RECOVER FROM STALL1636224
2026-04-04 04:53:45 GEAR DOWN2355632
2026-04-04 04:54:27 LANDING WITH LANDING LIGHTS OFF1204788
2026-04-04 04:54:27 LANDING1204788
2026-04-04 04:54:57 TAXI TO THE GATE204787
2026-04-04 05:02:23 STOPPING ENGINE 1 04789
2026-04-04 05:07:54 SIM PAUSED04789
2026-04-04 05:07:54 SIM UNPAUSED04789
 ACARS DATA
DATE IASGSALTITUDEFUEL CONSUMED OATFLIGHT STATUS
2026-04-04 02:55:1230478806BOARDING
2026-04-04 02:56:12304788-90206BOARDING
2026-04-04 02:57:12304788-90206BOARDING
2026-04-04 02:58:12304788-90206BOARDING
2026-04-04 02:59:12304788-90206BOARDING
2026-04-04 03:00:12204788-90206BOARDING
2026-04-04 03:01:12304788-90206BOARDING
2026-04-04 03:02:12304788-90206BOARDING
2026-04-04 03:03:12304788-90206BOARDING
2026-04-04 03:04:12304788-90206BOARDING
2026-04-04 03:05:12204788-90206BOARDING
2026-04-04 03:06:12304788-90206BOARDING
2026-04-04 03:07:12304788-90206BOARDING
2026-04-04 03:08:12304788-90206BOARDING
2026-04-04 03:09:12304788-90206BOARDING
2026-04-04 03:10:12304788-90206BOARDING
2026-04-04 03:11:12204788-90206BOARDING
2026-04-04 03:12:12304788-90176BOARDING
2026-04-04 03:13:12304788-89796BOARDING
2026-04-04 03:14:12204788-89426BOARDING
2026-04-04 03:15:12304788-89046BOARDING
2026-04-04 03:16:12304788-88656BOARDING
2026-04-04 03:17:12654788-88266BOARDING
2026-04-04 03:18:1212104788-87876TAXI TO THE RWY
2026-04-04 03:19:1218174788-87485TAXI TO THE RWY
2026-04-04 03:20:1218194788-87105TAXI TO THE RWY
2026-04-04 03:21:1227284788-86705TAXI TO THE RWY
2026-04-04 03:22:1223244789-86336TAXI TO THE RWY
2026-04-04 03:23:12104788-85946TAXI TO THE RWY
2026-04-04 03:24:12104788-85566TAXI TO THE RWY
2026-04-04 03:25:12104788-85196TAXI TO THE RWY
2026-04-04 03:26:12454788-84806TAXI TO THE RWY
2026-04-04 03:27:123253484917-80155CLIMBING
2026-04-04 03:28:1248459716035-7429-15CLIMBING
2026-04-04 03:29:1237144516294-7189-15CLIMBING
2026-04-04 03:30:1241450916296-6980-15DESCEND
2026-04-04 03:31:1241851516373-6764-15CRUISE
2026-04-04 03:32:1240149816548-6600-15CRUISE
2026-04-04 03:33:1243051715227-6424-12DESCEND
2026-04-04 03:34:1233240412985-6327-9DESCEND
2026-04-04 03:35:1230537011694-6226-7DESCEND
2026-04-04 03:36:123473518818-6069-3DESCEND
2026-04-04 03:37:1231239218333-5482-19CLIMBING
2026-04-04 03:38:122692935416-52314DESCEND
2026-04-04 03:39:125586005393-44304CLIMBING
2026-04-04 03:40:124134427525-35860CLIMBING
2026-04-04 03:41:1249657213356-3111-9CLIMBING
2026-04-04 03:42:1231336112856-3005-8CLIMBING
2026-04-04 03:43:1218823911793-2884-7CLIMBING
2026-04-04 03:44:1243650311820-2589-7CLIMBING
2026-04-04 03:45:1247656512397-2294-8DESCEND
2026-04-04 03:46:125685738529-1966-2CLIMBING
2026-04-04 03:47:1250560812703-1578-8CLIMBING
2026-04-04 03:48:1251259912808-1218-8DESCEND
2026-04-04 03:49:1242656618517-882-19CLIMBING
2026-04-04 03:50:1229639416850-811-16DESCEND
2026-04-04 03:51:1249062716944-488-16CLIMBING
2026-04-04 03:52:1246759716587-218-15DESCEND
2026-04-04 03:53:124716051668757-15CRUISE
2026-04-04 03:54:1240152416715196-15CRUISE
2026-04-04 03:55:1247160916889464-15CLIMBING
2026-04-04 03:56:1246659716514735-14DESCEND
2026-04-04 03:57:1242154316469952-14DESCEND
2026-04-04 03:58:12338448165941088-14CLIMBING
2026-04-04 03:59:12394498165301402-14DESCEND
2026-04-04 04:00:12363438167461554-14CLIMBING
2026-04-04 04:01:12317397169661698-15CLIMBING
2026-04-04 04:02:12281434248842111-33CLIMBING
2026-04-04 04:03:12415557252632471-34CLIMBING
2026-04-04 04:04:12326429251092594-34DESCEND
2026-04-04 04:05:12225292249802656-34CRUISE
2026-04-04 04:06:12376498249512907-34CRUISE
2026-04-04 04:07:12289381250623057-34CRUISE
2026-04-04 04:08:12376494247343215-33DESCEND
2026-04-04 04:09:12280365251203356-35DESCEND
2026-04-04 04:10:12294388251333469-35CRUISE
2026-04-04 04:11:12280379251353580-34CRUISE
2026-04-04 04:12:12319418251082552-34CRUISE
2026-04-04 04:13:1230542225051-1768-34CRUISE
2026-04-04 04:14:1230944125107-6176-34CRUISE
2026-04-04 04:15:1233650525029-6287-34DESCEND
2026-04-04 04:16:1230046024822-6156-33DESCEND
2026-04-04 04:17:1234245723008-5992-29DESCEND
2026-04-04 04:18:1235946821603-5697-25DESCEND
2026-04-04 04:19:1234545721907-5486-26CLIMBING
2026-04-04 04:20:1235947621889-5336-27CRUISE
2026-04-04 04:21:1235146522001-5198-27CLIMBING
2026-04-04 04:22:1236247722014-5053-27CRUISE
2026-04-04 04:23:1234845721989-4922-27CRUISE
2026-04-04 04:24:1236347222004-4744-27CRUISE
2026-04-04 04:25:1236146922054-4604-28CRUISE
2026-04-04 04:26:1231941821800-4510-27DESCEND
2026-04-04 04:27:1254470422772-3947-29CLIMBING
2026-04-04 04:28:1249853310857-3494-6DESCEND
2026-04-04 04:29:1254063011591-2940-7CLIMBING
2026-04-04 04:30:1245448119790-1985-22CLIMBING
2026-04-04 04:31:1243542316025-1133-13CLIMBING
2026-04-04 04:32:1251559810244-845-5DESCEND
2026-04-04 04:33:1248056812256-553-7CLIMBING
2026-04-04 04:34:1246754814353-268-10CLIMBING
2026-04-04 04:35:124765781688220-15DESCEND
2026-04-04 04:36:1249359816637305-14DESCEND
2026-04-04 04:37:1272880513452979-8CLIMBING
2026-04-04 04:38:12221282192931433-20CLIMBING
2026-04-04 04:39:12392169234212111-30DESCEND
2026-04-04 04:40:12540730271542665-39DESCEND
2026-04-04 04:41:12429507116503014-6DESCEND
2026-04-04 04:42:12397452113803387-6CLIMBING
2026-04-04 04:43:12482567154314116-12CLIMBING
2026-04-04 04:44:12418610247924412-34CLIMBING
2026-04-04 04:45:12364538258684570-37CRUISE
2026-04-04 04:46:12333495256404680-36DESCEND
2026-04-04 04:47:12336491247904785-34DESCEND
2026-04-04 04:48:12347498238414895-32DESCEND
2026-04-04 04:49:12349492231035010-31DESCEND
2026-04-04 04:50:12345472228245126-30DESCEND
2026-04-04 04:51:12344473222535240-29DESCEND
2026-04-04 04:52:12308389171895278-17DESCEND
2026-04-04 04:53:1228230189415316-4DESCEND
2026-04-04 04:54:12159170501254096DESCEND
2026-04-04 04:55:1278478754505TAXI TO THE GATE
2026-04-04 04:56:1212478754885TAXI TO THE GATE
2026-04-04 04:57:1200478755265TAXI TO THE GATE
2026-04-04 04:58:1200478755635TAXI TO THE GATE
2026-04-04 04:59:1200478756025TAXI TO THE GATE
2026-04-04 05:00:121516478856426TAXI TO THE GATE
2026-04-04 05:01:121010478856816TAXI TO THE GATE
2026-04-04 05:02:1200478857186TAXI TO THE GATE
2026-04-04 05:03:1200478857266TAXI TO THE GATE
2026-04-04 05:04:1200478857266TAXI TO THE GATE
2026-04-04 05:05:1200478857266TAXI TO THE GATE
2026-04-04 05:06:1200478857266TAXI TO THE GATE
2026-04-04 05:07:1200478857266TAXI TO THE GATE
2026-04-04 05:08:1200478857266TAXI TO THE GATE
2026-04-04 05:09:1200478857266TAXI TO THE GATE

Neither the Department of the Air Force, nor any other component of the Department of Defense or Federal Government has approved, endorsed, or authorized this promotion, activity, or organization. Virtual United States Air Force organization is in no way affiliated with the Department of Defense, Department of the Air Force, or any other federal or government entity. Virtual United States Air Force is a group of flight simulation enthusiasts with the common interest of promoting enjoyment and cameraderie through the simulation of military operations and procedures utilizing several flight simulation platforms.

Copyright © vUSAF, LLC // 2018-2026 All Rights Reserved